createdAt,value
2023-05-09T00:00:00.157Z,111.99
2023-05-09T00:03:06.376Z,110.17
2023-05-09T00:06:14.006Z,112.63
2023-05-09T00:09:20.185Z,112.70
2023-05-09T00:12:27.275Z,113.36
2023-05-09T00:15:36.299Z,112.81
2023-05-09T00:18:43.004Z,114.87
2023-05-09T00:21:49.482Z,115.82
2023-05-09T00:24:56.708Z,111.59
2023-05-09T00:28:02.808Z,113.19
2023-05-09T00:31:12.338Z,113.07
2023-05-09T00:34:18.416Z,115.30
2023-05-09T00:37:25.443Z,118.95
2023-05-09T00:40:36.603Z,113.06
2023-05-09T00:43:43.470Z,115.14
2023-05-09T00:46:52.441Z,116.14
2023-05-09T00:50:01.278Z,119.02
2023-05-09T00:53:13.146Z,118.73
2023-05-09T00:56:22.070Z,129.05
2023-05-09T00:59:34.557Z,133.58
2023-05-09T01:02:45.433Z,138.26
2023-05-09T01:06:01.858Z,137.04
2023-05-09T01:09:27.601Z,132.66
2023-05-09T01:12:49.555Z,128.12
2023-05-09T01:16:17.594Z,132.03
2023-05-09T01:20:00.182Z,125.51
2023-05-09T01:23:38.278Z,127.46
2023-05-09T01:27:19.020Z,129.87
2023-05-09T01:30:34.316Z,130.38
2023-05-09T01:33:45.478Z,127.78
2023-05-09T01:36:59.094Z,125.95
2023-05-09T01:40:15.500Z,130.29
2023-05-09T01:43:27.095Z,130.23
2023-05-09T01:46:37.968Z,131.71
2023-05-09T01:49:47.781Z,127.08
2023-05-09T01:53:01.379Z,126.74
2023-05-09T01:56:17.325Z,126.33
2023-05-09T01:59:33.274Z,124.32
2023-05-09T02:02:44.693Z,125.03
2023-05-09T02:05:53.796Z,129.91
2023-05-09T02:09:01.954Z,130.26
2023-05-09T02:12:08.732Z,130.21
2023-05-09T02:15:16.735Z,135.89
2023-05-09T02:18:25.351Z,135.39
2023-05-09T02:21:32.258Z,138.94
2023-05-09T02:24:39.145Z,143.97
2023-05-09T02:27:49.623Z,139.11
2023-05-09T02:31:05.024Z,136.77
2023-05-09T02:34:16.470Z,139.44
2023-05-09T02:37:24.032Z,143.15
2023-05-09T02:40:33.516Z,146.84
2023-05-09T02:43:39.459Z,147.13
2023-05-09T02:46:46.648Z,148.51
2023-05-09T02:50:01.377Z,145.45
2023-05-09T02:53:15.963Z,147.86
2023-05-09T02:56:28.662Z,149.15
2023-05-09T02:59:35.539Z,155.49
2023-05-09T03:02:42.937Z,159.88
2023-05-09T03:05:58.148Z,162.29
2023-05-09T03:09:04.160Z,165.98
2023-05-09T03:12:12.122Z,164.77
2023-05-09T03:15:24.046Z,162.96
2023-05-09T03:18:31.331Z,165.12
2023-05-09T03:21:40.030Z,164.80
2023-05-09T03:25:03.986Z,168.69
2023-05-09T03:28:09.992Z,177.99
2023-05-09T03:31:19.520Z,192.60
2023-05-09T03:34:25.439Z,185.53
2023-05-09T03:37:35.037Z,184.41
2023-05-09T03:40:41.745Z,184.94
2023-05-09T03:43:50.774Z,185.16
2023-05-09T03:46:56.632Z,194.03
2023-05-09T03:50:06.064Z,186.31
2023-05-09T03:53:15.826Z,191.43
2023-05-09T03:56:26.173Z,189.04
2023-05-09T03:59:33.120Z,184.84
2023-05-09T04:02:41.104Z,179.84
2023-05-09T04:05:50.779Z,170.30
2023-05-09T04:09:11.982Z,162.06
2023-05-09T04:12:20.630Z,168.24
2023-05-09T04:15:28.308Z,162.84
2023-05-09T04:18:36.868Z,157.82
2023-05-09T04:21:44.972Z,148.13
2023-05-09T04:24:53.548Z,139.49
2023-05-09T04:28:00.933Z,141.49
2023-05-09T04:31:07.731Z,136.03
2023-05-09T04:34:15.930Z,135.35
2023-05-09T04:37:22.319Z,136.65
2023-05-09T04:40:38.770Z,138.17
2023-05-09T04:43:44.939Z,130.01
2023-05-09T04:47:01.559Z,125.18
2023-05-09T04:50:25.489Z,123.25
2023-05-09T04:53:32.306Z,122.49
2023-05-09T04:56:42.473Z,121.58
2023-05-09T04:59:50.037Z,123.14
2023-05-09T05:02:56.224Z,117.08
2023-05-09T05:06:06.625Z,117.27
2023-05-09T05:09:14.190Z,121.44
2023-05-09T05:12:23.724Z,117.60
2023-05-09T05:15:29.865Z,114.40
2023-05-09T05:18:37.461Z,117.91
2023-05-09T05:21:44.819Z,116.90
2023-05-09T05:24:52.351Z,117.68
2023-05-09T05:28:01.620Z,121.01
2023-05-09T05:31:08.848Z,119.64
2023-05-09T05:34:16.670Z,121.51
2023-05-09T05:37:24.455Z,117.67
2023-05-09T05:40:30.437Z,116.00
2023-05-09T05:43:43.237Z,118.80
2023-05-09T05:46:49.440Z,116.78
2023-05-09T05:49:57.167Z,113.37
2023-05-09T05:53:03.696Z,112.49
2023-05-09T05:56:11.173Z,109.04
2023-05-09T05:59:20.003Z,111.02
2023-05-09T06:02:27.155Z,110.22
2023-05-09T06:05:33.961Z,104.76
2023-05-09T06:08:41.357Z,116.45
2023-05-09T06:11:47.943Z,151.46
2023-05-09T06:14:57.322Z,163.51
2023-05-09T06:18:03.712Z,1809.98
2023-05-09T06:21:11.026Z,364.43
2023-05-09T06:24:31.633Z,157.97
2023-05-09T06:27:42.042Z,149.28
2023-05-09T06:30:50.800Z,166.91
2023-05-09T06:33:57.609Z,159.02
2023-05-09T06:37:03.554Z,153.85
2023-05-09T06:40:12.582Z,148.07
2023-05-09T06:43:18.559Z,159.11
2023-05-09T06:46:28.140Z,152.32
2023-05-09T06:49:36.293Z,148.69
2023-05-09T06:52:43.721Z,153.23
2023-05-09T06:55:49.925Z,154.81
2023-05-09T06:58:56.848Z,143.37
2023-05-09T07:02:06.829Z,132.42
2023-05-09T07:05:14.059Z,137.72
2023-05-09T07:08:20.400Z,139.87
2023-05-09T07:11:27.403Z,145.08
2023-05-09T07:14:37.296Z,128.27
2023-05-09T07:17:47.069Z,298.30
2023-05-09T07:20:53.094Z,330.90
2023-05-09T07:23:59.868Z,336.24
2023-05-09T07:27:06.822Z,191.95
2023-05-09T07:30:14.896Z,128.67
2023-05-09T07:33:23.854Z,130.20
2023-05-09T07:36:30.822Z,129.46
2023-05-09T07:39:41.300Z,127.85
2023-05-09T07:42:54.421Z,121.59
2023-05-09T07:46:00.436Z,105.86
2023-05-09T07:49:09.947Z,114.39
2023-05-09T07:52:17.610Z,98.98
2023-05-09T07:55:26.539Z,107.49
2023-05-09T07:58:32.499Z,93.20
2023-05-09T08:01:39.432Z,108.57
2023-05-09T08:04:49.287Z,89.74
2023-05-09T08:07:56.097Z,101.73
2023-05-09T08:11:02.243Z,92.86
2023-05-09T08:14:09.061Z,104.00
2023-05-09T08:17:15.048Z,91.61
2023-05-09T08:20:25.996Z,102.05
2023-05-09T08:23:32.812Z,90.74
2023-05-09T08:26:39.599Z,102.14
2023-05-09T08:29:46.408Z,105.31
2023-05-09T08:32:59.507Z,101.10
2023-05-09T08:36:09.493Z,85.94
2023-05-09T08:39:16.301Z,93.17
2023-05-09T08:42:26.786Z,106.48
2023-05-09T08:45:37.170Z,106.02
2023-05-09T08:48:46.471Z,115.64
2023-05-09T08:51:56.353Z,109.95
2023-05-09T08:55:04.059Z,104.76
2023-05-09T08:58:12.774Z,114.88
2023-05-09T09:01:22.092Z,106.11
2023-05-09T09:04:29.065Z,104.84
2023-05-09T09:07:39.775Z,105.29
2023-05-09T09:10:50.254Z,108.17
2023-05-09T09:13:59.113Z,106.84
2023-05-09T09:17:09.439Z,105.19
2023-05-09T09:20:27.682Z,126.96
2023-05-09T09:23:40.982Z,121.50
2023-05-09T09:26:52.000Z,115.23
2023-05-09T09:30:14.629Z,108.16
2023-05-09T09:33:24.345Z,93.59
2023-05-09T09:36:32.737Z,94.15
2023-05-09T09:39:41.285Z,95.08
2023-05-09T09:42:50.087Z,100.80
2023-05-09T09:45:58.286Z,89.16
2023-05-09T09:49:05.208Z,97.48
2023-05-09T09:52:11.115Z,103.45
2023-05-09T09:55:27.891Z,95.28
2023-05-09T09:58:36.066Z,88.69
2023-05-09T10:02:06.106Z,93.59
2023-05-09T10:05:15.838Z,89.03
2023-05-09T10:08:22.844Z,101.50
2023-05-09T10:11:31.721Z,87.73
2023-05-09T10:14:41.553Z,110.15
2023-05-09T10:17:47.888Z,93.13
2023-05-09T10:20:56.707Z,92.47
2023-05-09T10:24:06.400Z,90.55
2023-05-09T10:27:18.825Z,100.09
2023-05-09T10:30:34.219Z,92.17
2023-05-09T10:33:49.873Z,93.35
2023-05-09T10:36:57.789Z,81.47
2023-05-09T10:40:09.595Z,95.46
2023-05-09T10:43:22.088Z,86.61
2023-05-09T10:46:31.613Z,93.87
2023-05-09T10:49:38.331Z,82.15
2023-05-09T10:53:14.482Z,93.59
2023-05-09T10:56:29.496Z,81.55
2023-05-09T10:59:44.022Z,88.62
2023-05-09T11:03:10.906Z,92.78
2023-05-09T11:06:51.388Z,87.85
2023-05-09T11:10:12.915Z,89.74
2023-05-09T11:13:23.865Z,92.44
2023-05-09T11:16:32.433Z,88.55
2023-05-09T11:19:57.031Z,95.18
2023-05-09T11:23:09.012Z,79.31
2023-05-09T11:26:18.296Z,92.20
2023-05-09T11:29:29.776Z,76.51
2023-05-09T11:32:49.391Z,89.99
2023-05-09T11:36:25.854Z,86.71
2023-05-09T11:39:33.037Z,89.56
2023-05-09T11:42:39.881Z,100.61
2023-05-09T11:45:50.046Z,95.36
2023-05-09T11:48:58.762Z,100.25
2023-05-09T11:52:05.469Z,98.16
2023-05-09T11:55:14.717Z,96.36
2023-05-09T11:58:21.999Z,94.58
2023-05-09T12:01:29.584Z,91.37
2023-05-09T12:04:39.896Z,87.22
2023-05-09T12:07:46.620Z,77.09
2023-05-09T12:10:53.846Z,86.98
2023-05-09T12:13:59.757Z,82.58
2023-05-09T12:17:06.680Z,85.69
2023-05-09T12:20:16.424Z,81.66
2023-05-09T12:23:23.692Z,77.42
2023-05-09T12:26:30.233Z,62.16
2023-05-09T12:29:38.761Z,71.27
2023-05-09T12:32:47.145Z,67.27
2023-05-09T12:36:11.598Z,63.91
2023-05-09T12:39:22.723Z,63.30
2023-05-09T12:42:31.738Z,67.68
2023-05-09T12:45:38.695Z,53.85
2023-05-09T12:48:50.626Z,64.13
2023-05-09T12:52:05.764Z,69.33
2023-05-09T12:55:17.195Z,67.46
2023-05-09T12:58:23.259Z,81.10
2023-05-09T13:01:37.959Z,78.48
2023-05-09T13:04:48.853Z,64.46
2023-05-09T13:08:00.999Z,73.32
2023-05-09T13:11:18.680Z,67.99
2023-05-09T13:14:30.372Z,71.87
2023-05-09T13:17:36.439Z,75.21
2023-05-09T13:20:43.864Z,78.72
2023-05-09T13:23:53.037Z,78.95
2023-05-09T13:26:59.833Z,84.36
2023-05-09T13:30:07.936Z,78.59
2023-05-09T13:33:25.409Z,86.15
2023-05-09T13:36:32.911Z,71.44
2023-05-09T13:39:42.357Z,86.14
2023-05-09T13:42:49.227Z,79.42
2023-05-09T13:45:56.102Z,81.58
2023-05-09T13:49:05.010Z,82.06
2023-05-09T13:52:12.406Z,76.36
2023-05-09T13:55:23.656Z,68.30
2023-05-09T13:58:30.472Z,79.50
2023-05-09T14:01:36.614Z,74.44
2023-05-09T14:04:44.317Z,82.19
2023-05-09T14:07:52.781Z,74.15
2023-05-09T14:11:04.262Z,73.70
2023-05-09T14:14:10.266Z,78.75
2023-05-09T14:17:17.268Z,78.80
2023-05-09T14:20:24.171Z,76.17
2023-05-09T14:23:32.036Z,76.16
2023-05-09T14:26:42.013Z,86.16
2023-05-09T14:29:49.753Z,96.11
2023-05-09T14:32:55.974Z,85.35
2023-05-09T14:36:05.104Z,84.69
2023-05-09T14:39:11.225Z,82.75
2023-05-09T14:42:21.082Z,79.59
2023-05-09T14:45:27.137Z,75.93
2023-05-09T14:48:34.137Z,78.68
2023-05-09T14:51:40.203Z,82.07
2023-05-09T14:54:46.968Z,81.71
2023-05-09T14:57:55.619Z,64.65
2023-05-09T15:01:03.024Z,69.93
2023-05-09T15:04:09.774Z,73.86
2023-05-09T15:07:16.508Z,81.86
2023-05-09T15:10:22.574Z,67.61
2023-05-09T15:13:32.142Z,76.72
2023-05-09T15:16:40.032Z,76.26
2023-05-09T15:19:47.263Z,82.22
2023-05-09T15:22:56.494Z,70.32
2023-05-09T15:26:03.249Z,78.49
2023-05-09T15:29:13.447Z,79.76
2023-05-09T15:32:20.724Z,84.69
2023-05-09T15:35:27.005Z,74.74
2023-05-09T15:38:33.688Z,84.44
2023-05-09T15:41:42.983Z,83.05
2023-05-09T15:44:53.172Z,81.90
2023-05-09T15:47:59.167Z,84.58
2023-05-09T15:51:06.048Z,85.32
2023-05-09T15:54:11.997Z,89.42
2023-05-09T15:57:20.123Z,89.18
2023-05-09T16:00:38.583Z,70.43
2023-05-09T16:03:45.515Z,87.81
2023-05-09T16:06:52.513Z,90.09
2023-05-09T16:10:00.253Z,89.62
2023-05-09T16:13:06.319Z,84.98
2023-05-09T16:16:16.061Z,91.12
2023-05-09T16:19:30.883Z,83.71
2023-05-09T16:22:37.795Z,87.29
2023-05-09T16:25:45.208Z,86.73
2023-05-09T16:28:52.359Z,92.56
2023-05-09T16:32:01.008Z,79.05
2023-05-09T16:35:22.753Z,85.58
2023-05-09T16:38:29.194Z,68.87
2023-05-09T16:41:36.000Z,85.33
2023-05-09T16:44:42.170Z,76.64
2023-05-09T16:47:51.726Z,88.92
2023-05-09T16:50:57.756Z,87.81
2023-05-09T16:54:09.990Z,83.21
2023-05-09T16:57:19.798Z,91.12
2023-05-09T17:00:39.961Z,85.44
2023-05-09T17:03:48.927Z,78.92
2023-05-09T17:06:55.996Z,97.70
2023-05-09T17:10:02.258Z,81.76
2023-05-09T17:13:09.701Z,88.50
2023-05-09T17:16:16.406Z,90.16
2023-05-09T17:19:28.756Z,91.18
2023-05-09T17:22:41.785Z,82.33
2023-05-09T17:25:52.242Z,83.18
2023-05-09T17:28:58.257Z,94.16
2023-05-09T17:32:07.913Z,94.16
2023-05-09T17:35:19.639Z,91.31
2023-05-09T17:38:26.540Z,88.19
2023-05-09T17:41:38.932Z,84.35
2023-05-09T17:44:47.864Z,80.10
2023-05-09T17:47:53.903Z,76.12
2023-05-09T17:51:09.934Z,89.76
2023-05-09T17:54:22.187Z,94.54
2023-05-09T17:57:29.161Z,100.33
2023-05-09T18:00:41.949Z,111.00
2023-05-09T18:03:51.196Z,98.30
2023-05-09T18:07:00.118Z,92.91
2023-05-09T18:10:15.517Z,101.39
2023-05-09T18:13:21.812Z,102.15
2023-05-09T18:16:28.711Z,105.40
2023-05-09T18:19:35.760Z,118.87
2023-05-09T18:22:45.067Z,119.26
2023-05-09T18:25:51.486Z,119.64
2023-05-09T18:28:58.422Z,109.18
2023-05-09T18:32:04.993Z,100.36
2023-05-09T18:35:12.927Z,124.78
2023-05-09T18:38:21.474Z,112.05
2023-05-09T18:41:34.259Z,103.67
2023-05-09T18:44:40.294Z,99.41
2023-05-09T18:47:47.178Z,113.96
2023-05-09T18:50:54.306Z,105.51
2023-05-09T18:54:03.839Z,111.74
2023-05-09T18:57:10.252Z,107.39
2023-05-09T19:00:19.101Z,127.88
2023-05-09T19:03:25.833Z,123.54
2023-05-09T19:06:34.946Z,108.18
2023-05-09T19:09:45.035Z,103.17
2023-05-09T19:12:52.312Z,118.73
2023-05-09T19:15:59.606Z,116.41
2023-05-09T19:19:06.440Z,106.95
2023-05-09T19:22:12.455Z,109.15
2023-05-09T19:25:22.474Z,116.21
2023-05-09T19:28:28.643Z,108.46
2023-05-09T19:31:35.428Z,123.69
2023-05-09T19:34:41.471Z,114.20
2023-05-09T19:37:50.447Z,123.23
2023-05-09T19:40:59.503Z,126.34
2023-05-09T19:44:07.552Z,115.57
2023-05-09T19:47:14.029Z,114.92
2023-05-09T19:50:21.463Z,112.60
2023-05-09T19:53:36.130Z,96.95
2023-05-09T19:56:45.577Z,110.58
2023-05-09T19:59:52.343Z,105.67
2023-05-09T20:03:02.852Z,108.00
2023-05-09T20:06:09.366Z,105.80
2023-05-09T20:09:21.116Z,117.69
2023-05-09T20:12:30.364Z,117.43
2023-05-09T20:15:37.610Z,123.49
2023-05-09T20:19:01.375Z,99.27
2023-05-09T20:22:09.242Z,122.04
2023-05-09T20:25:15.660Z,104.83
2023-05-09T20:28:25.224Z,112.13
2023-05-09T20:31:31.567Z,108.29
2023-05-09T20:34:38.454Z,224.27
2023-05-09T20:37:44.674Z,246.89
2023-05-09T20:40:51.450Z,181.07
2023-05-09T20:44:04.534Z,137.09
2023-05-09T20:47:11.812Z,124.94
2023-05-09T20:50:18.141Z,126.49
2023-05-09T20:53:26.805Z,124.79
2023-05-09T20:56:34.001Z,122.85
2023-05-09T20:59:44.393Z,129.04
2023-05-09T21:02:50.373Z,124.10
2023-05-09T21:05:57.490Z,133.96
2023-05-09T21:09:03.728Z,122.44
2023-05-09T21:12:11.393Z,120.09
2023-05-09T21:15:20.453Z,130.59
2023-05-09T21:18:27.783Z,129.94
2023-05-09T21:21:34.728Z,121.54
2023-05-09T21:24:41.400Z,127.25
2023-05-09T21:27:47.869Z,134.51
2023-05-09T21:31:00.224Z,144.67
2023-05-09T21:34:10.321Z,149.44
2023-05-09T21:37:17.208Z,153.30
2023-05-09T21:40:25.963Z,139.27
2023-05-09T21:43:32.784Z,141.29
2023-05-09T21:46:46.523Z,142.15
2023-05-09T21:49:53.469Z,139.90
2023-05-09T21:53:00.747Z,145.61
2023-05-09T21:56:08.624Z,144.07
2023-05-09T21:59:14.461Z,133.85
2023-05-09T22:02:24.026Z,142.39
2023-05-09T22:05:30.154Z,140.46
2023-05-09T22:08:36.900Z,135.37
2023-05-09T22:11:42.907Z,126.52
2023-05-09T22:14:56.329Z,131.25
2023-05-09T22:18:05.718Z,131.40
2023-05-09T22:21:12.989Z,136.75
2023-05-09T22:24:18.812Z,127.43
2023-05-09T22:27:25.654Z,134.46
2023-05-09T22:30:38.068Z,132.57
2023-05-09T22:33:47.469Z,131.41
2023-05-09T22:36:56.366Z,132.62
2023-05-09T22:40:03.732Z,137.11
2023-05-09T22:43:10.904Z,138.20
2023-05-09T22:46:17.636Z,138.79
2023-05-09T22:49:26.813Z,129.58
2023-05-09T22:52:33.568Z,140.27
2023-05-09T22:55:39.777Z,127.59
2023-05-09T22:58:46.911Z,134.55
2023-05-09T23:01:53.828Z,139.94
2023-05-09T23:05:03.553Z,153.42
2023-05-09T23:08:09.603Z,147.43
2023-05-09T23:11:16.301Z,148.19
2023-05-09T23:14:22.356Z,154.92
2023-05-09T23:17:32.081Z,137.85
2023-05-09T23:20:40.669Z,131.97
2023-05-09T23:23:47.407Z,139.49
2023-05-09T23:26:53.372Z,134.74
2023-05-09T23:30:00.223Z,135.25
2023-05-09T23:33:06.339Z,133.28
2023-05-09T23:36:15.943Z,135.82
2023-05-09T23:39:21.980Z,137.77
2023-05-09T23:42:29.161Z,135.82
2023-05-09T23:45:40.863Z,144.98
2023-05-09T23:48:47.677Z,2128.88
2023-05-09T23:51:57.292Z,6464.03
2023-05-09T23:55:04.099Z,11009.05
2023-05-09T23:58:10.115Z,3087.27
